Time;durP1;ratioP1;P1;durP2;ratioP2;P2;SDS_P1;SDS_P2;PMS_P1;PMS_P2;Temp;Humidity;BMP_temperature;BMP_pressure;BME280_temperature;BME280_humidity;BME280_pressure;Samples;Min_cycle;Max_cycle;Signal;HPM_P1;HPM_P2
2023/01/19 00:02:20;;;;;;;13.47;12.13;;;4.20;99.90;;;;;;5006646;28;20054;-87
2023/01/19 00:04:46;;;;;;;14.43;12.77;;;4.20;99.90;;;;;;5007538;28;20046;-85
2023/01/19 00:07:12;;;;;;;13.60;12.27;;;4.00;99.90;;;;;;5008084;28;20027;-86
2023/01/19 00:09:38;;;;;;;14.30;13.00;;;4.00;99.90;;;;;;4991472;28;20041;-86
2023/01/19 00:12:04;;;;;;;13.60;12.47;;;4.00;99.90;;;;;;4991978;28;20038;-86
2023/01/19 00:14:31;;;;;;;13.17;11.70;;;4.10;99.90;;;;;;5009888;28;20034;-86
2023/01/19 00:16:57;;;;;;;13.80;12.40;;;4.20;99.90;;;;;;5010499;28;20034;-86
2023/01/19 00:19:23;;;;;;;15.33;11.40;;;4.20;99.90;;;;;;4979348;28;20038;-86
2023/01/19 00:21:49;;;;;;;14.07;11.93;;;4.10;99.90;;;;;;4996332;28;20030;-86
2023/01/19 00:24:15;;;;;;;16.00;11.77;;;4.10;99.90;;;;;;5028063;28;20514;-86
2023/01/19 00:26:41;;;;;;;13.07;11.70;;;4.10;99.90;;;;;;5010912;28;20037;-86
2023/01/19 00:29:11;;;;;;;12.07;10.77;;;4.00;99.90;;;;;;5028026;28;20069;-86
2023/01/19 00:31:37;;;;;;;13.67;12.03;;;4.10;99.90;;;;;;5026640;28;20118;-86
2023/01/19 00:34:03;;;;;;;12.60;11.20;;;4.10;99.90;;;;;;5017209;28;20423;-86
2023/01/19 00:36:29;;;;;;;13.10;11.47;;;4.10;99.90;;;;;;5012853;28;20042;-86
2023/01/19 00:38:56;;;;;;;12.63;11.47;;;4.10;99.90;;;;;;4995270;28;20399;-86
2023/01/19 00:42:38;;;;;;;13.50;11.93;;;4.10;99.90;;;;;;4953127;28;20054;-86
2023/01/19 00:44:08;;;;;;;13.67;12.27;;;4.10;99.90;;;;;;5002796;28;20042;-86
2023/01/19 00:46:34;;;;;;;12.27;11.00;;;4.10;99.90;;;;;;5024632;28;20380;-86
2023/01/19 00:49:00;;;;;;;13.10;11.80;;;4.00;99.90;;;;;;4977517;28;20030;-86
2023/01/19 00:51:26;;;;;;;16.13;12.23;;;4.00;99.90;;;;;;4976557;28;20364;-85
2023/01/19 00:53:52;;;;;;;16.60;13.53;;;4.00;99.90;;;;;;4992784;28;20037;-86
2023/01/19 00:56:18;;;;;;;15.77;13.23;;;3.90;99.90;;;;;;4993899;28;20038;-87
2023/01/19 00:58:44;;;;;;;15.80;14.17;;;3.90;99.90;;;;;;4994701;28;20034;-86
2023/01/19 01:01:11;;;;;;;16.63;13.17;;;3.90;99.90;;;;;;5026781;28;20034;-85
2023/01/19 01:03:37;;;;;;;20.87;15.37;;;3.90;99.90;;;;;;5027389;28;20038;-85
2023/01/19 01:06:05;;;;;;;15.83;14.23;;;4.00;99.90;;;;;;5013810;28;20038;-86
2023/01/19 01:08:32;;;;;;;15.63;13.63;;;3.90;99.90;;;;;;4976495;28;20499;-86
2023/01/19 01:10:58;;;;;;;14.30;12.80;;;3.90;99.90;;;;;;4995200;28;20387;-86
2023/01/19 01:13:24;;;;;;;14.00;12.63;;;3.90;99.90;;;;;;4995959;28;20038;-86
2023/01/19 01:15:51;;;;;;;15.37;13.77;;;3.90;99.90;;;;;;5025574;28;20411;-86
2023/01/19 01:18:17;;;;;;;14.80;13.00;;;3.90;99.90;;;;;;4978123;28;20045;-86
2023/01/19 01:20:43;;;;;;;16.53;13.83;;;3.80;99.90;;;;;;4994028;28;20030;-86
2023/01/19 01:23:09;;;;;;;19.47;13.70;;;3.80;99.90;;;;;;5009210;28;20050;-85
2023/01/19 01:25:37;;;;;;;14.50;13.13;;;3.70;99.90;;;;;;4993217;28;20027;-85
2023/01/19 01:28:07;;;;;;;15.13;12.50;;;3.80;99.90;;;;;;4978450;28;20050;-85
2023/01/19 01:30:34;;;;;;;15.83;14.23;;;3.80;99.90;;;;;;4997223;28;20042;-86
2023/01/19 01:33:00;;;;;;;15.13;13.20;;;3.80;99.90;;;;;;5011248;28;20043;-86
2023/01/19 01:35:26;;;;;;;22.00;15.80;;;3.70;99.90;;;;;;5023055;28;20498;-85
2023/01/19 01:37:56;;;;;;;16.20;14.20;;;3.70;99.90;;;;;;5011724;28;20031;-85
2023/01/19 01:40:22;;;;;;;16.67;13.90;;;3.70;99.90;;;;;;4992440;28;20034;-86
2023/01/19 01:42:48;;;;;;;15.20;12.97;;;3.70;99.90;;;;;;4995080;28;20042;-86
2023/01/19 01:45:34;;;;;;;17.07;13.30;;;3.70;99.90;;;;;;5019724;28;20034;-86
2023/01/19 01:48:21;;;;;;;15.07;13.63;;;3.60;99.90;;;;;;5016133;28;20026;-86
2023/01/19 01:53:34;;;;;;;14.60;13.40;;;3.70;99.90;;;;;;4998139;28;20525;-86
2023/01/19 01:56:01;;;;;;;21.10;15.73;;;3.60;99.90;;;;;;4987388;28;20039;-86
2023/01/19 01:58:27;;;;;;;15.67;14.13;;;3.60;99.90;;;;;;5015972;28;20384;-86
2023/01/19 02:03:37;;;;;;;16.80;15.00;;;3.60;99.90;;;;;;4991947;28;20050;-85
2023/01/19 02:06:06;;;;;;;17.23;13.07;;;3.60;99.90;;;;;;4973448;28;20050;-87
2023/01/19 02:14:24;;;;;;;18.13;13.40;;;3.60;99.90;;;;;;4994400;28;20038;-86
2023/01/19 02:16:50;;;;;;;14.97;13.47;;;3.60;99.90;;;;;;4989632;28;20034;-86
2023/01/19 02:19:20;;;;;;;14.50;13.17;;;3.50;99.90;;;;;;4997511;28;20046;-86
2023/01/19 02:22:20;;;;;;;19.40;14.48;;;3.60;99.90;;;;;;5022214;28;20027;-85
2023/01/19 02:24:46;;;;;;;14.57;12.40;;;3.50;99.90;;;;;;4971892;28;20050;-84
2023/01/19 02:27:12;;;;;;;17.57;12.70;;;3.60;99.90;;;;;;4946286;28;20054;-85
2023/01/19 02:29:38;;;;;;;14.87;13.37;;;3.50;99.90;;;;;;4956985;28;20054;-86
2023/01/19 02:32:04;;;;;;;18.70;13.73;;;3.50;99.90;;;;;;4959739;28;20035;-86
2023/01/19 02:34:31;;;;;;;15.63;14.00;;;3.60;99.90;;;;;;4971406;28;20035;-86
2023/01/19 02:37:06;;;;;;;25.03;15.77;;;3.60;99.90;;;;;;4956481;28;20420;-86
2023/01/19 02:39:54;;;;;;;24.67;14.03;;;3.60;99.90;;;;;;4971087;28;20135;-86
2023/01/19 02:42:21;;;;;;;15.53;13.93;;;3.70;99.90;;;;;;4967391;28;20530;-86
2023/01/19 02:44:48;;;;;;;18.87;14.50;;;3.70;99.90;;;;;;4983804;28;20053;-86
2023/01/19 02:47:14;;;;;;;15.67;13.97;;;3.70;99.90;;;;;;4974053;28;20030;-86
2023/01/19 02:49:40;;;;;;;17.20;12.47;;;3.60;99.90;;;;;;4954836;28;20049;-86
2023/01/19 02:52:11;;;;;;;15.63;13.20;;;3.60;99.90;;;;;;4970429;28;20458;-84
2023/01/19 02:54:44;;;;;;;;;;;3.70;99.90;;;;;;4959207;28;20045;-86
2023/01/19 02:57:29;;;;;;;12.87;11.73;;;3.70;99.90;;;;;;4990025;28;19910;-85
2023/01/19 03:00:17;;;;;;;19.73;13.10;;;3.70;99.90;;;;;;4996130;28;20039;-85
2023/01/19 03:03:19;;;;;;;15.00;13.17;;;3.60;99.90;;;;;;4969210;28;20053;-86
2023/01/19 03:05:57;;;;;;;18.80;13.07;;;3.60;99.90;;;;;;4977664;28;20057;-86
2023/01/19 03:08:28;;;;;;;17.37;13.30;;;3.50;99.90;;;;;;5004561;28;20022;-86
2023/01/19 03:10:58;;;;;;;21.37;12.93;;;3.50;99.90;;;;;;4990538;28;20053;-86
2023/01/19 03:13:45;;;;;;;18.93;14.20;;;3.50;99.90;;;;;;4991338;28;20049;-86
2023/01/19 03:16:33;;;;;;;18.87;13.67;;;3.50;99.90;;;;;;4990192;28;20034;-86
2023/01/19 03:19:22;;;;;;;13.80;12.50;;;3.60;99.90;;;;;;4987679;28;20050;-86
2023/01/19 03:21:53;;;;;;;15.30;13.63;;;3.60;99.90;;;;;;5017951;28;20498;-86
2023/01/19 03:24:19;;;;;;;16.20;13.13;;;3.50;99.90;;;;;;5015662;28;20041;-86
2023/01/19 03:26:55;;;;;;;16.87;13.53;;;3.50;99.90;;;;;;5005945;28;20391;-86
2023/01/19 03:29:21;;;;;;;17.77;13.50;;;3.40;99.90;;;;;;4988295;28;20049;-86
2023/01/19 03:31:47;;;;;;;14.50;12.80;;;3.50;99.90;;;;;;4973817;28;20030;-86
2023/01/19 03:34:13;;;;;;;19.00;13.00;;;3.50;99.90;;;;;;5005309;28;20374;-86
2023/01/19 03:36:42;;;;;;;13.27;12.10;;;3.40;99.90;;;;;;4989195;28;20098;-85
2023/01/19 03:39:08;;;;;;;20.60;12.67;;;3.40;99.90;;;;;;4969691;28;20053;-85
2023/01/19 03:41:35;;;;;;;14.30;12.87;;;3.50;99.90;;;;;;5006507;28;20042;-85
2023/01/19 03:44:01;;;;;;;12.63;11.63;;;3.40;99.90;;;;;;5007726;28;20047;-86
2023/01/19 03:46:27;;;;;;;13.47;12.33;;;3.50;99.90;;;;;;4981938;28;20056;-85
2023/01/19 03:48:53;;;;;;;18.23;12.20;;;3.50;99.90;;;;;;5024721;28;20392;-86
2023/01/19 03:51:19;;;;;;;13.83;12.47;;;3.50;99.90;;;;;;5002619;28;20031;-85
2023/01/19 03:53:46;;;;;;;15.00;12.60;;;3.40;99.90;;;;;;4989721;28;20050;-85
2023/01/19 03:56:30;;;;;;;12.40;11.27;;;3.50;99.90;;;;;;4985186;28;20379;-86
2023/01/19 03:58:56;;;;;;;13.73;12.27;;;3.50;99.90;;;;;;5012625;28;20503;-85
2023/01/19 04:01:23;;;;;;;13.63;12.43;;;3.50;99.90;;;;;;5018992;28;20035;-86
2023/01/19 04:03:50;;;;;;;15.33;11.10;;;3.50;99.90;;;;;;4992697;28;20050;-85
2023/01/19 04:06:16;;;;;;;15.97;12.70;;;3.40;99.90;;;;;;4987626;28;20042;-86
2023/01/19 04:08:42;;;;;;;15.40;11.87;;;3.50;99.90;;;;;;4990787;28;20045;-86
2023/01/19 04:11:09;;;;;;;13.60;12.20;;;3.40;99.90;;;;;;5013517;28;20503;-87
2023/01/19 04:13:35;;;;;;;13.87;12.63;;;3.30;99.90;;;;;;4970990;28;20030;-87
2023/01/19 04:16:01;;;;;;;16.10;10.93;;;3.30;99.90;;;;;;4982059;28;20034;-86
2023/01/19 04:18:28;;;;;;;18.10;12.17;;;3.30;99.90;;;;;;5013803;28;20030;-85
2023/01/19 04:20:54;;;;;;;13.20;11.93;;;3.30;99.90;;;;;;4995112;28;20436;-87
2023/01/19 04:23:20;;;;;;;13.40;12.27;;;3.30;99.90;;;;;;5018861;28;20038;-88
2023/01/19 04:25:46;;;;;;;15.27;11.97;;;3.40;99.90;;;;;;4992744;28;20396;-88
2023/01/19 04:28:12;;;;;;;14.70;12.30;;;3.40;99.90;;;;;;4993051;28;20042;-89
2023/01/19 04:30:38;;;;;;;12.80;11.43;;;3.50;99.90;;;;;;4994586;28;20369;-87
2023/01/19 04:33:04;;;;;;;12.80;11.23;;;3.50;99.90;;;;;;4973401;28;20050;-87
2023/01/19 04:35:30;;;;;;;13.40;12.07;;;3.40;99.90;;;;;;4995343;28;20411;-92
2023/01/19 04:37:57;;;;;;;16.90;12.30;;;3.40;99.90;;;;;;4968375;28;20053;-91
2023/01/19 04:40:23;;;;;;;12.70;11.17;;;3.50;99.90;;;;;;5017022;28;20386;-89
2023/01/19 04:42:49;;;;;;;15.40;12.03;;;3.50;99.90;;;;;;5015171;28;20030;-92
2023/01/19 04:45:16;;;;;;;234.00;31.73;;;3.50;99.90;;;;;;5001398;28;20046;-90
2023/01/19 04:47:42;;;;;;;893.77;98.40;;;3.50;99.90;;;;;;4979214;28;20038;-90
2023/01/19 04:50:09;;;;;;;23.67;16.93;;;3.50;99.90;;;;;;4994302;28;20039;-90
2023/01/19 04:52:35;;;;;;;1215.47;126.87;;;3.60;99.90;;;;;;5005458;28;20420;-91
2023/01/19 04:55:05;;;;;;;1655.10;231.27;;;3.60;99.90;;;;;;5017258;28;20037;-90
2023/01/19 04:57:31;;;;;;;1946.70;198.60;;;3.60;99.90;;;;;;4999970;28;20030;-87
2023/01/19 04:59:57;;;;;;;384.47;26.57;;;3.50;99.90;;;;;;5008267;28;20058;-88
2023/01/19 05:02:24;;;;;;;501.67;36.17;;;3.40;99.90;;;;;;5043993;28;20142;-87
2023/01/19 05:04:50;;;;;;;20.27;14.30;;;3.40;99.90;;;;;;4985303;28;20053;-89
2023/01/19 05:07:16;;;;;;;18.63;12.87;;;3.50;99.90;;;;;;5002166;28;20035;-88
2023/01/19 05:09:42;;;;;;;18.00;12.47;;;3.40;99.90;;;;;;4990984;28;20042;-88
2023/01/19 05:12:08;;;;;;;18.20;12.87;;;3.50;99.90;;;;;;4992263;28;20030;-87
2023/01/19 05:14:34;;;;;;;16.97;12.93;;;3.50;99.90;;;;;;4992288;28;20505;-88
2023/01/19 05:17:02;;;;;;;100.23;17.00;;;3.60;99.90;;;;;;4959217;28;20039;-88
2023/01/19 05:19:28;;;;;;;15.50;13.20;;;3.60;99.90;;;;;;4981160;28;20026;-88
2023/01/19 05:21:54;;;;;;;19.40;12.73;;;3.50;99.90;;;;;;5011262;28;20041;-88
2023/01/19 05:24:20;;;;;;;15.37;12.27;;;3.50;99.90;;;;;;4978682;28;20522;-88
2023/01/19 05:26:46;;;;;;;13.53;12.23;;;3.50;99.90;;;;;;4994741;28;20038;-87
2023/01/19 05:29:12;;;;;;;17.03;12.43;;;3.50;99.90;;;;;;4995490;28;20402;-88
2023/01/19 05:31:38;;;;;;;36.50;13.07;;;3.50;99.90;;;;;;5011124;28;20118;-88
2023/01/19 05:34:05;;;;;;;589.60;40.30;;;3.50;99.90;;;;;;5027435;28;20030;-88
2023/01/19 05:36:31;;;;;;;186.73;22.50;;;3.60;99.90;;;;;;5002777;28;20035;-88
2023/01/19 05:38:57;;;;;;;18.17;15.77;;;3.60;99.90;;;;;;4991739;28;20023;-88
2023/01/19 05:41:23;;;;;;;17.07;13.93;;;3.70;99.90;;;;;;5006286;28;20026;-88
2023/01/19 05:43:49;;;;;;;14.30;12.70;;;3.70;99.90;;;;;;4994915;28;20041;-88
2023/01/19 05:46:15;;;;;;;14.13;12.87;;;3.70;99.90;;;;;;4994523;28;20031;-88
2023/01/19 05:48:41;;;;;;;218.13;23.73;;;3.70;99.90;;;;;;4995046;28;20031;-88
2023/01/19 05:51:08;;;;;;;23.73;12.73;;;3.60;99.90;;;;;;4994092;28;20034;-88
2023/01/19 05:53:34;;;;;;;17.23;12.93;;;3.60;99.90;;;;;;5011452;28;20053;-88
2023/01/19 05:56:01;;;;;;;15.90;14.20;;;3.70;99.90;;;;;;4994654;28;20038;-89
2023/01/19 05:58:27;;;;;;;16.80;15.07;;;3.70;99.90;;;;;;4995016;28;20054;-88
2023/01/19 06:00:54;;;;;;;25.30;17.80;;;3.70;99.90;;;;;;4978378;28;20050;-88
2023/01/19 06:03:20;;;;;;;15.93;13.83;;;3.80;99.90;;;;;;4978070;28;20484;-88
2023/01/19 06:05:46;;;;;;;1085.57;91.30;;;3.80;99.90;;;;;;5010057;28;20046;-88
2023/01/19 06:08:13;;;;;;;150.37;24.07;;;3.90;99.90;;;;;;4994946;28;20038;-88
2023/01/19 06:10:39;;;;;;;171.50;21.73;;;3.90;99.90;;;;;;4994858;28;20039;-88
2023/01/19 06:13:05;;;;;;;333.53;31.17;;;3.90;99.90;;;;;;5026508;28;20031;-88
2023/01/19 06:15:31;;;;;;;686.23;59.67;;;3.90;99.90;;;;;;5025276;28;20034;-88
2023/01/19 06:17:57;;;;;;;1685.87;215.43;;;3.80;99.90;;;;;;5011123;28;20476;-88
2023/01/19 06:20:24;;;;;;;16.10;14.37;;;3.70;99.90;;;;;;4998743;28;20027;-89
2023/01/19 06:22:50;;;;;;;13.47;12.07;;;3.80;99.90;;;;;;4994048;28;20464;-88
2023/01/19 06:25:16;;;;;;;20.50;13.80;;;3.90;99.90;;;;;;4994307;28;20049;-88
2023/01/19 06:27:43;;;;;;;18.53;13.43;;;3.80;99.90;;;;;;4995043;28;20484;-88
2023/01/19 06:30:09;;;;;;;14.50;13.03;;;3.90;99.90;;;;;;5025761;28;20388;-87
2023/01/19 06:32:36;;;;;;;75.83;15.97;;;3.90;99.90;;;;;;5026406;28;20037;-88
2023/01/19 06:35:02;;;;;;;17.60;12.43;;;3.80;99.90;;;;;;5025199;28;20301;-88
2023/01/19 06:37:29;;;;;;;285.67;26.67;;;3.90;99.90;;;;;;5010327;28;20471;-89
2023/01/19 06:39:55;;;;;;;13.10;11.57;;;3.80;99.90;;;;;;4993903;28;20491;-87
2023/01/19 06:42:21;;;;;;;13.40;12.00;;;3.80;99.90;;;;;;4993847;28;20042;-89
2023/01/19 06:44:47;;;;;;;635.17;45.90;;;3.90;99.90;;;;;;4987627;28;20499;-88
2023/01/19 06:47:16;;;;;;;18.73;12.83;;;3.80;99.90;;;;;;4995472;28;20053;-88
2023/01/19 06:49:43;;;;;;;77.77;15.37;;;3.80;99.90;;;;;;4981150;28;20057;-89
2023/01/19 06:52:19;;;;;;;42.83;13.00;;;3.80;99.90;;;;;;5009951;28;20034;-88
2023/01/19 06:54:45;;;;;;;200.17;21.80;;;3.70;99.90;;;;;;5008651;28;20026;-88
2023/01/19 06:57:12;;;;;;;14.77;12.60;;;3.70;99.90;;;;;;4990367;28;20046;-90
2023/01/19 06:59:38;;;;;;;66.13;14.77;;;3.80;99.90;;;;;;5016833;28;20027;-88
2023/01/19 07:02:04;;;;;;;14.90;12.63;;;3.80;99.90;;;;;;4986832;28;20050;-87
2023/01/19 07:04:30;;;;;;;14.60;12.90;;;3.70;99.90;;;;;;4994604;28;20050;-89
2023/01/19 07:06:56;;;;;;;13.80;12.40;;;3.70;99.90;;;;;;5014554;28;20397;-89
2023/01/19 07:09:24;;;;;;;14.20;12.73;;;3.70;99.90;;;;;;5010990;28;20411;-91
2023/01/19 07:11:50;;;;;;;14.30;13.03;;;3.70;99.90;;;;;;5007352;28;20289;-90
2023/01/19 07:14:16;;;;;;;15.03;13.67;;;3.80;99.90;;;;;;4961168;28;20046;-90
2023/01/19 07:16:42;;;;;;;13.07;11.67;;;3.80;99.90;;;;;;5013110;28;20030;-87
2023/01/19 07:19:09;;;;;;;22.23;14.73;;;3.80;99.90;;;;;;4987207;28;20375;-90
2023/01/19 07:21:36;;;;;;;16.23;14.53;;;3.80;99.90;;;;;;5010230;28;20041;-88
2023/01/19 07:24:02;;;;;;;409.90;32.00;;;3.90;99.90;;;;;;4993623;28;20041;-87
2023/01/19 07:26:28;;;;;;;14.10;12.30;;;3.90;99.90;;;;;;4984205;28;20058;-86
2023/01/19 07:28:54;;;;;;;17.67;14.13;;;3.90;99.90;;;;;;4972912;28;20043;-86
2023/01/19 07:31:20;;;;;;;17.13;13.73;;;3.90;99.90;;;;;;4999986;28;20045;-86
2023/01/19 07:33:46;;;;;;;22.23;14.87;;;3.80;99.90;;;;;;5024620;28;20030;-86
2023/01/19 07:36:12;;;;;;;17.97;14.23;;;3.80;99.90;;;;;;4976146;28;20045;-86
2023/01/19 07:38:38;;;;;;;169.90;21.03;;;3.80;99.90;;;;;;4991835;28;20022;-85
2023/01/19 07:41:06;;;;;;;48.93;15.90;;;3.70;99.90;;;;;;4976113;28;20580;-85
2023/01/19 07:43:32;;;;;;;16.00;14.23;;;3.70;99.90;;;;;;4992009;28;20030;-85
2023/01/19 07:45:59;;;;;;;16.20;12.83;;;3.70;99.90;;;;;;4987060;28;20039;-85
2023/01/19 07:48:26;;;;;;;29.33;13.67;;;3.70;99.90;;;;;;4993026;28;20046;-84
2023/01/19 07:50:52;;;;;;;14.10;12.70;;;3.70;99.90;;;;;;5002979;28;20046;-84
2023/01/19 07:53:18;;;;;;;14.33;12.57;;;3.70;99.90;;;;;;5008000;28;20022;-85
2023/01/19 07:55:44;;;;;;;41.17;13.63;;;3.70;99.90;;;;;;5002475;28;20051;-84
2023/01/19 07:58:11;;;;;;;321.63;29.83;;;3.60;99.90;;;;;;5007147;28;20053;-88
2023/01/19 08:00:37;;;;;;;190.30;24.67;;;3.70;99.90;;;;;;4991892;28;20031;-85
2023/01/19 08:03:03;;;;;;;31.17;19.53;;;3.70;99.90;;;;;;5008183;28;20038;-85
2023/01/19 08:05:30;;;;;;;36.57;20.63;;;3.80;99.90;;;;;;5006329;28;20058;-87
2023/01/19 08:07:56;;;;;;;43.87;24.50;;;3.70;99.90;;;;;;5007982;28;20034;-86
2023/01/19 08:10:25;;;;;;;26.10;15.80;;;3.70;99.90;;;;;;5006834;28;20038;-85
2023/01/19 08:12:55;;;;;;;40.30;22.13;;;3.70;99.90;;;;;;5008324;28;20033;-88
2023/01/19 08:15:22;;;;;;;166.30;34.23;;;3.80;99.90;;;;;;5007524;28;20034;-88
2023/01/19 08:17:59;;;;;;;52.80;17.70;;;3.80;99.90;;;;;;4992378;28;20399;-88
2023/01/19 08:20:26;;;;;;;30.77;17.93;;;3.80;99.90;;;;;;4992646;28;20027;-88
2023/01/19 08:22:58;;;;;;;29.93;18.37;;;3.80;99.90;;;;;;4976583;28;20053;-88
2023/01/19 08:25:26;;;;;;;24.97;18.77;;;3.80;99.90;;;;;;4988786;28;20435;-86
2023/01/19 08:27:55;;;;;;;24.93;16.87;;;3.90;99.90;;;;;;5024392;28;20413;-87
2023/01/19 08:30:23;;;;;;;23.57;16.77;;;3.90;99.90;;;;;;5023892;28;20515;-87
2023/01/19 08:32:49;;;;;;;41.30;22.93;;;3.90;99.90;;;;;;5008504;28;20026;-88
2023/01/19 08:35:15;;;;;;;23.70;17.73;;;3.90;99.90;;;;;;5009492;28;20506;-87
2023/01/19 08:37:41;;;;;;;574.90;48.80;;;4.00;99.90;;;;;;5012372;28;20034;-88
2023/01/19 08:40:08;;;;;;;26.00;17.27;;;4.00;99.90;;;;;;4996270;28;20046;-87
2023/01/19 08:42:34;;;;;;;21.23;16.63;;;4.00;99.90;;;;;;4995890;28;20050;-87
2023/01/19 08:45:00;;;;;;;18.03;16.13;;;4.00;99.90;;;;;;4994767;28;20050;-87
2023/01/19 08:47:27;;;;;;;24.63;17.70;;;3.90;99.90;;;;;;4991967;28;20035;-87
2023/01/19 08:49:53;;;;;;;20.80;17.63;;;4.00;99.90;;;;;;4995128;28;20034;-88
2023/01/19 08:52:19;;;;;;;20.57;18.40;;;3.90;99.90;;;;;;5001794;28;20043;-91
2023/01/19 08:54:45;;;;;;;27.23;21.73;;;4.00;99.90;;;;;;5010475;28;20038;-88
2023/01/19 08:57:11;;;;;;;27.97;19.17;;;4.20;99.90;;;;;;4975439;28;20515;-88
2023/01/19 08:59:37;;;;;;;19.03;17.13;;;4.20;99.90;;;;;;4976998;28;20042;-88
2023/01/19 09:02:03;;;;;;;575.27;48.60;;;4.20;99.90;;;;;;4991583;28;20035;-87
2023/01/19 09:04:29;;;;;;;21.07;17.30;;;4.20;99.90;;;;;;4991604;28;20110;-86
2023/01/19 09:06:55;;;;;;;26.80;19.73;;;4.30;99.90;;;;;;5011690;28;20411;-88
2023/01/19 09:09:21;;;;;;;26.53;18.93;;;4.40;99.90;;;;;;4965947;28;20042;-87
2023/01/19 09:11:47;;;;;;;15.63;14.03;;;4.40;99.90;;;;;;4961956;28;20411;-86
2023/01/19 09:14:13;;;;;;;14.97;13.23;;;4.40;99.90;;;;;;4983952;28;20026;-88
2023/01/19 09:16:40;;;;;;;24.73;14.23;;;4.50;99.90;;;;;;4968913;28;20038;-87
2023/01/19 09:19:07;;;;;;;15.67;14.03;;;4.40;99.90;;;;;;4955823;28;20408;-86
2023/01/19 09:21:33;;;;;;;22.03;17.07;;;4.50;99.90;;;;;;5001394;28;20030;-86
2023/01/19 09:23:59;;;;;;;16.50;12.87;;;4.40;99.90;;;;;;4959770;28;20143;-84
2023/01/19 09:26:25;;;;;;;17.30;13.43;;;4.40;99.90;;;;;;4992260;28;20046;-88
2023/01/19 09:28:52;;;;;;;15.60;13.93;;;4.40;99.90;;;;;;4990993;28;20040;-83
2023/01/19 09:31:18;;;;;;;16.50;15.00;;;4.30;99.90;;;;;;5000712;28;20037;-84
2023/01/19 09:33:44;;;;;;;181.57;23.10;;;4.40;99.90;;;;;;4976245;28;20031;-86
2023/01/19 09:36:10;;;;;;;15.77;14.07;;;4.50;99.90;;;;;;4998053;28;20518;-87
2023/01/19 09:38:37;;;;;;;14.30;13.00;;;4.60;99.90;;;;;;5026549;28;20034;-86
2023/01/19 09:41:08;;;;;;;14.70;13.30;;;4.50;99.90;;;;;;5009140;28;20026;-88
2023/01/19 09:43:36;;;;;;;15.27;12.32;;;4.60;99.90;;;;;;4984261;28;20041;-88
2023/01/19 09:46:10;;;;;;;18.83;14.50;;;4.70;99.90;;;;;;5000023;28;20503;-87
2023/01/19 09:48:53;;;;;;;15.83;12.30;;;4.70;99.90;;;;;;4990426;28;20030;-87
2023/01/19 09:51:22;;;;;;;12.67;11.50;;;4.70;99.90;;;;;;4990011;28;20034;-88
2023/01/19 09:54:23;;;;;;;13.17;11.90;;;4.70;99.90;;;;;;4991013;28;20023;-87
2023/01/19 09:56:49;;;;;;;15.68;12.27;;;4.70;99.90;;;;;;5002122;28;20038;-86
2023/01/19 09:59:27;;;;;;;15.17;12.07;;;4.80;99.90;;;;;;4990463;28;20035;-86
2023/01/19 10:02:12;;;;;;;13.30;12.20;;;4.80;99.90;;;;;;5005235;28;20027;-84
2023/01/19 10:04:38;;;;;;;15.57;11.90;;;4.90;99.90;;;;;;4970836;28;20035;-84
2023/01/19 10:07:22;;;;;;;14.30;12.10;;;4.90;99.90;;;;;;4962671;28;20038;-85
2023/01/19 10:10:00;;;;;;;14.43;12.93;;;4.90;99.90;;;;;;4975011;28;20038;-84
2023/01/19 10:12:29;;;;;;;15.93;13.67;;;4.80;99.90;;;;;;5009975;28;20527;-84
2023/01/19 10:15:13;;;;;;;15.40;13.37;;;4.80;99.90;;;;;;5007550;28;20508;-85
2023/01/19 10:18:22;;;;;;;15.50;13.50;;;4.80;99.90;;;;;;4987670;28;20039;-85
2023/01/19 10:20:59;;;;;;;18.63;14.97;;;4.80;99.90;;;;;;4985010;28;20380;-84
2023/01/19 10:23:36;;;;;;;23.93;14.83;;;4.90;99.90;;;;;;4992504;28;20474;-84
2023/01/19 10:26:17;;;;;;;16.90;14.23;;;4.90;99.90;;;;;;5009798;28;20047;-85
2023/01/19 10:28:45;;;;;;;15.50;14.00;;;5.00;99.90;;;;;;4973257;28;20043;-85
2023/01/19 10:31:11;;;;;;;15.13;13.47;;;5.10;99.90;;;;;;5013502;28;20400;-90
2023/01/19 10:33:37;;;;;;;17.40;14.57;;;5.10;99.90;;;;;;5010232;28;20034;-85
2023/01/19 10:36:34;;;;;;;16.40;14.80;;;5.10;99.90;;;;;;4961985;28;20054;-85
2023/01/19 10:39:00;;;;;;;19.33;14.33;;;5.20;99.90;;;;;;4977289;28;20041;-87
2023/01/19 10:41:37;;;;;;;15.53;14.00;;;5.20;99.90;;;;;;4976350;28;20042;-87
2023/01/19 10:44:04;;;;;;;18.13;13.87;;;5.20;99.90;;;;;;5008854;28;20026;-88
2023/01/19 10:46:32;;;;;;;17.07;13.60;;;5.30;99.90;;;;;;5008139;28;20043;-88
2023/01/19 10:48:58;;;;;;;15.10;13.53;;;5.30;99.90;;;;;;4991201;28;20034;-90
2023/01/19 10:51:24;;;;;;;17.07;14.57;;;5.30;99.90;;;;;;5010609;28;20499;-85
2023/01/19 10:54:02;;;;;;;15.73;14.23;;;5.40;99.90;;;;;;4979772;28;20471;-90
2023/01/19 10:56:30;;;;;;;18.77;17.23;;;5.40;99.90;;;;;;4981680;28;20039;-87
2023/01/19 10:58:59;;;;;;;24.90;17.87;;;5.50;99.90;;;;;;5007063;28;20034;-86
2023/01/19 11:01:26;;;;;;;21.77;17.63;;;5.40;99.90;;;;;;5008596;28;20030;-83
2023/01/19 11:03:52;;;;;;;20.47;16.40;;;5.20;99.90;;;;;;4992346;28;20049;-83
2023/01/19 11:06:25;;;;;;;25.17;19.43;;;4.90;99.90;;;;;;5007067;28;20065;-84
2023/01/19 11:08:51;;;;;;;24.07;17.73;;;4.80;99.90;;;;;;5031230;28;20113;-84
2023/01/19 11:11:18;;;;;;;21.83;16.43;;;4.80;99.90;;;;;;5012144;28;20038;-85
2023/01/19 11:13:46;;;;;;;19.17;16.10;;;5.00;99.90;;;;;;4991566;28;20030;-83
2023/01/19 11:16:15;;;;;;;21.40;17.57;;;5.10;99.90;;;;;;5007558;28;20034;-84
2023/01/19 11:18:41;;;;;;;23.10;18.87;;;5.20;99.90;;;;;;5013328;28;20471;-85
2023/01/19 11:21:12;;;;;;;21.70;18.57;;;5.10;99.90;;;;;;4999478;28;20041;-84
2023/01/19 11:23:45;;;;;;;20.25;18.25;;;5.00;99.90;;;;;;4992060;28;20030;-83
2023/01/19 11:26:33;;;;;;;22.77;17.47;;;4.90;99.90;;;;;;4980353;28;20066;-85
2023/01/19 11:29:01;;;;;;;20.20;14.67;;;4.80;99.90;;;;;;5011547;28;20521;-84
2023/01/19 11:31:27;;;;;;;17.10;15.33;;;4.80;99.90;;;;;;4982939;28;20514;-84
2023/01/19 11:33:54;;;;;;;16.30;14.67;;;4.80;99.90;;;;;;4990653;28;20045;-84
2023/01/19 11:36:25;;;;;;;14.73;13.33;;;4.80;99.90;;;;;;4975253;28;20049;-84
2023/01/19 11:38:56;;;;;;;16.98;15.23;;;4.80;99.90;;;;;;4972915;28;20041;-85
2023/01/19 11:41:25;;;;;;;18.05;15.98;;;4.70;99.90;;;;;;4993905;28;20050;-86
2023/01/19 11:43:57;;;;;;;21.00;15.70;;;4.60;99.90;;;;;;4991879;28;20427;-85
2023/01/19 11:46:26;;;;;;;19.83;16.17;;;4.60;99.90;;;;;;4990695;28;20500;-85
2023/01/19 11:49:00;;;;;;;18.67;16.20;;;4.70;99.90;;;;;;5007072;28;20023;-85
2023/01/19 11:51:29;;;;;;;17.37;15.77;;;5.00;99.90;;;;;;5006061;28;20395;-85
2023/01/19 11:53:55;;;;;;;17.47;15.80;;;4.90;99.90;;;;;;4990348;28;20030;-85
2023/01/19 11:56:23;;;;;;;23.90;17.97;;;4.90;99.90;;;;;;4974071;28;20042;-84
2023/01/19 11:58:50;;;;;;;26.30;22.37;;;5.10;99.90;;;;;;4995183;28;20045;-86
2023/01/19 12:01:23;;;;;;;21.87;19.33;;;5.20;99.90;;;;;;5010242;28;20033;-87
2023/01/19 12:03:58;;;;;;;19.97;17.70;;;5.30;99.90;;;;;;4994670;28;20482;-86
2023/01/19 12:06:30;;;;;;;19.70;17.80;;;5.50;99.90;;;;;;4999396;28;20061;-87
2023/01/19 12:09:09;;;;;;;20.20;18.10;;;5.50;99.90;;;;;;4975766;28;20440;-86
2023/01/19 12:11:40;;;;;;;16.23;14.57;;;5.50;99.90;;;;;;4996970;28;20038;-86
2023/01/19 12:14:18;;;;;;;24.77;16.77;;;5.60;99.90;;;;;;4981421;28;20376;-86
2023/01/19 12:16:44;;;;;;;19.57;17.20;;;5.70;99.90;;;;;;5009884;28;20404;-86
2023/01/19 12:19:14;;;;;;;23.63;14.70;;;5.80;99.90;;;;;;5011191;28;20045;-85
2023/01/19 12:21:41;;;;;;;16.02;14.30;;;5.90;99.90;;;;;;5010717;28;20376;-85
2023/01/19 12:24:26;;;;;;;15.13;13.63;;;5.80;99.90;;;;;;4995098;28;20049;-84
2023/01/19 12:26:56;;;;;;;16.13;14.53;;;5.80;99.90;;;;;;4994429;28;20054;-86
2023/01/19 12:29:24;;;;;;;14.70;13.20;;;5.80;99.90;;;;;;5012304;28;20037;-86
2023/01/19 12:32:12;;;;;;;16.33;13.73;;;5.80;99.90;;;;;;5010961;28;20392;-85
2023/01/19 12:34:39;;;;;;;17.40;13.93;;;5.70;99.90;;;;;;4996102;28;20384;-85
2023/01/19 12:37:06;;;;;;;19.07;15.57;;;5.70;99.90;;;;;;5011356;28;20038;-85
2023/01/19 12:39:34;;;;;;;19.20;15.03;;;5.70;99.90;;;;;;4994368;28;20034;-85
2023/01/19 12:42:15;;;;;;;39.80;23.13;;;5.60;99.90;;;;;;4996604;28;20046;-85
2023/01/19 12:44:42;;;;;;;38.90;22.20;;;5.70;99.90;;;;;;4995359;28;20026;-85
2023/01/19 12:47:14;;;;;;;51.70;28.37;;;5.70;99.90;;;;;;4994348;28;20043;-85
2023/01/19 12:49:45;;;;;;;69.10;32.27;;;5.70;99.90;;;;;;4994434;28;20395;-85
2023/01/19 12:52:18;;;;;;;46.08;24.98;;;5.80;99.90;;;;;;4994500;28;20019;-85
2023/01/19 12:55:11;;;;;;;35.27;19.37;;;5.80;99.90;;;;;;4996223;28;20375;-86
2023/01/19 12:57:51;;;;;;;46.93;25.57;;;5.80;99.90;;;;;;4994030;28;20046;-84